createdAt,value
2023-03-08T00:01:31.555Z,99.30
2023-03-08T00:04:00.991Z,99.90
2023-03-08T00:06:29.726Z,97.40
2023-03-08T00:09:00.750Z,64.50
2023-03-08T00:11:30.354Z,86.60
2023-03-08T00:14:01.570Z,73.20
2023-03-08T00:16:30.140Z,73.60
2023-03-08T00:18:58.541Z,77.60
2023-03-08T00:21:27.148Z,91.20
2023-03-08T00:23:56.111Z,78.90
2023-03-08T00:26:24.860Z,99.90
2023-03-08T00:28:53.644Z,99.90
2023-03-08T00:31:23.649Z,99.90
2023-03-08T00:33:55.845Z,99.90
2023-03-08T00:36:24.281Z,76.10
2023-03-08T00:38:53.377Z,54.20
2023-03-08T00:41:22.044Z,49.20
2023-03-08T00:43:50.874Z,71.10
2023-03-08T00:46:19.505Z,82.20
2023-03-08T00:48:49.308Z,82.10
2023-03-08T00:51:20.530Z,94.10
2023-03-08T00:53:49.176Z,90.60
2023-03-08T00:56:17.453Z,92.40
2023-03-08T00:58:46.950Z,94.00
2023-03-08T01:01:18.900Z,89.30
2023-03-08T01:03:51.731Z,99.90
2023-03-08T01:06:20.630Z,97.00
2023-03-08T01:08:49.130Z,93.00
2023-03-08T01:11:23.234Z,99.80
2023-03-08T01:13:53.642Z,99.40
2023-03-08T01:16:24.993Z,98.80
2023-03-08T01:18:57.305Z,99.90
2023-03-08T01:21:27.594Z,99.90
2023-03-08T01:23:57.408Z,99.90
2023-03-08T01:26:28.073Z,99.90
2023-03-08T01:28:58.198Z,99.90
2023-03-08T01:31:29.027Z,99.90
2023-03-08T01:34:00.192Z,99.90
2023-03-08T01:36:29.858Z,99.90
2023-03-08T01:39:01.510Z,99.90
2023-03-08T01:41:32.190Z,99.90
2023-03-08T01:44:01.024Z,99.90
2023-03-08T01:46:32.255Z,99.90
2023-03-08T01:49:25.682Z,99.90
2023-03-08T01:52:02.875Z,99.90
2023-03-08T01:54:37.990Z,99.90
2023-03-08T01:57:14.870Z,99.90
2023-03-08T01:59:46.084Z,99.90
2023-03-08T02:02:14.561Z,99.90
2023-03-08T02:04:45.275Z,99.90
2023-03-08T02:07:15.439Z,99.90
2023-03-08T02:09:45.950Z,99.90
2023-03-08T02:12:15.074Z,99.90
2023-03-08T02:14:45.825Z,99.90
2023-03-08T02:17:14.325Z,99.90
2023-03-08T02:19:53.582Z,99.90
2023-03-08T02:22:22.933Z,99.90
2023-03-08T02:24:52.770Z,99.90
2023-03-08T02:27:26.990Z,99.90
2023-03-08T02:29:55.612Z,99.90
2023-03-08T02:32:24.626Z,99.90
2023-03-08T02:34:54.516Z,99.90
2023-03-08T02:37:23.026Z,99.90
2023-03-08T02:39:54.246Z,99.90
2023-03-08T02:42:24.443Z,99.90
2023-03-08T02:44:52.834Z,99.90
2023-03-08T02:47:21.177Z,99.90
2023-03-08T02:49:49.641Z,99.90
2023-03-08T02:52:18.220Z,99.90
2023-03-08T02:54:46.573Z,99.90
2023-03-08T02:57:16.423Z,99.90
2023-03-08T02:59:46.902Z,99.90
2023-03-08T03:02:16.496Z,99.90
2023-03-08T03:04:45.028Z,99.90
2023-03-08T03:07:14.044Z,99.90
2023-03-08T03:09:42.517Z,99.90
2023-03-08T03:12:10.911Z,99.90
2023-03-08T03:14:43.356Z,99.90
2023-03-08T03:17:11.720Z,99.90
2023-03-08T03:19:40.188Z,99.90
2023-03-08T03:22:08.537Z,99.90
2023-03-08T03:24:37.604Z,99.90
2023-03-08T03:27:07.375Z,99.90
2023-03-08T03:29:39.283Z,99.90
2023-03-08T03:32:16.457Z,99.90
2023-03-08T03:34:45.346Z,99.90
2023-03-08T03:37:14.399Z,99.90
2023-03-08T03:39:43.735Z,99.90
2023-03-08T03:42:15.403Z,99.90
2023-03-08T03:44:51.381Z,99.90
2023-03-08T03:47:23.785Z,99.90
2023-03-08T03:49:56.835Z,99.90
2023-03-08T03:52:26.684Z,99.90
2023-03-08T03:55:01.457Z,99.90
2023-03-08T03:57:30.614Z,99.90
2023-03-08T03:59:59.628Z,99.90
2023-03-08T04:02:30.087Z,99.90
2023-03-08T04:05:02.629Z,99.90
2023-03-08T04:07:34.799Z,99.90
2023-03-08T04:10:03.925Z,99.90
2023-03-08T04:12:33.556Z,99.90
2023-03-08T04:15:01.912Z,99.90
2023-03-08T04:17:34.670Z,99.90
2023-03-08T04:20:04.309Z,99.90
2023-03-08T04:22:38.317Z,99.90
2023-03-08T04:25:19.316Z,99.90
2023-03-08T04:27:54.827Z,99.90
2023-03-08T04:30:23.541Z,99.90
2023-03-08T04:32:54.607Z,99.90
2023-03-08T04:35:28.885Z,99.90
2023-03-08T04:37:57.296Z,99.90
2023-03-08T04:40:28.026Z,99.90
2023-03-08T04:43:00.341Z,99.90
2023-03-08T04:45:35.715Z,99.90
2023-03-08T04:48:10.271Z,99.90
2023-03-08T04:50:39.380Z,99.90
2023-03-08T04:53:09.438Z,99.90
2023-03-08T04:55:38.209Z,99.90
2023-03-08T04:58:07.466Z,99.90
2023-03-08T05:00:35.920Z,99.90
2023-03-08T05:03:06.169Z,99.90
2023-03-08T05:05:35.876Z,99.90
2023-03-08T05:08:05.259Z,99.90
2023-03-08T05:10:35.689Z,99.90
2023-03-08T05:13:04.292Z,99.90
2023-03-08T05:15:32.582Z,99.90
2023-03-08T05:18:01.022Z,99.90
2023-03-08T05:20:29.454Z,99.90
2023-03-08T05:22:59.665Z,99.90
2023-03-08T05:25:44.959Z,99.90
2023-03-08T05:28:15.869Z,99.90
2023-03-08T05:30:45.757Z,99.90
2023-03-08T05:33:15.380Z,99.90
2023-03-08T05:35:43.997Z,99.90
2023-03-08T05:38:14.407Z,99.90
2023-03-08T05:40:43.083Z,99.90
2023-03-08T05:43:13.181Z,99.90
2023-03-08T05:45:42.248Z,95.90
2023-03-08T05:48:11.157Z,99.90
2023-03-08T05:50:39.696Z,99.90
2023-03-08T05:53:08.044Z,99.00
2023-03-08T05:55:37.734Z,98.20
2023-03-08T05:58:06.728Z,77.10
2023-03-08T06:00:35.830Z,84.50
2023-03-08T06:03:04.490Z,92.10
2023-03-08T06:05:36.058Z,95.40
2023-03-08T06:08:05.108Z,89.70
2023-03-08T06:10:34.373Z,58.00
2023-03-08T06:13:04.495Z,51.20
2023-03-08T06:15:33.137Z,54.40
2023-03-08T06:18:01.759Z,55.40
2023-03-08T06:20:30.001Z,59.20
2023-03-08T06:22:58.344Z,53.60
2023-03-08T06:25:26.614Z,59.20
2023-03-08T06:27:55.583Z,69.00
2023-03-08T06:30:34.065Z,74.30
2023-03-08T06:33:04.805Z,88.60
2023-03-08T06:35:33.061Z,90.10
2023-03-08T06:38:03.565Z,92.40
2023-03-08T06:40:33.373Z,93.00
2023-03-08T06:43:01.663Z,82.20
2023-03-08T06:45:30.273Z,69.20
2023-03-08T06:47:59.954Z,59.00
2023-03-08T06:50:30.249Z,72.20
2023-03-08T06:52:58.494Z,58.50
2023-03-08T06:55:41.944Z,49.00
2023-03-08T06:58:10.846Z,59.90
2023-03-08T07:00:39.123Z,76.20
2023-03-08T07:03:08.723Z,72.20
2023-03-08T07:05:37.006Z,78.00
2023-03-08T07:08:06.134Z,23.40
2023-03-08T07:10:35.316Z,33.60
2023-03-08T07:13:03.856Z,53.60
2023-03-08T07:15:32.132Z,20.00
2023-03-08T07:18:00.426Z,13.00
2023-03-08T07:20:30.059Z,8.00
2023-03-08T07:23:01.556Z,15.30
2023-03-08T07:25:30.505Z,9.80
2023-03-08T07:28:00.350Z,3.50
2023-03-08T07:30:29.108Z,16.60
2023-03-08T07:32:57.402Z,14.20
2023-03-08T07:35:25.620Z,9.90
2023-03-08T07:37:55.309Z,9.50
2023-03-08T07:40:24.071Z,14.50
2023-03-08T07:42:52.248Z,6.50
2023-03-08T07:45:43.512Z,7.30
2023-03-08T07:48:11.760Z,18.20
2023-03-08T07:50:39.976Z,18.40
2023-03-08T07:53:09.565Z,6.90
2023-03-08T07:55:38.467Z,1.00
2023-03-08T07:58:07.031Z,3.20
2023-03-08T08:00:35.344Z,1.00
2023-03-08T08:03:03.589Z,1.00
2023-03-08T08:05:31.926Z,1.00
2023-03-08T08:08:00.253Z,1.00
2023-03-08T08:10:30.765Z,1.00
2023-03-08T08:12:59.132Z,1.00
2023-03-08T08:15:27.331Z,1.00
2023-03-08T08:17:55.548Z,1.00
2023-03-08T08:20:25.160Z,1.00
2023-03-08T08:22:53.607Z,1.00
2023-03-08T08:25:22.662Z,1.00
2023-03-08T08:27:53.109Z,1.00
2023-03-08T08:30:21.616Z,1.00
2023-03-08T08:32:50.102Z,1.00
2023-03-08T08:35:18.673Z,1.00
2023-03-08T08:37:46.905Z,12.30
2023-03-08T08:40:15.431Z,26.90
2023-03-08T08:42:43.715Z,10.30
2023-03-08T08:45:13.744Z,1.00
2023-03-08T08:47:42.122Z,1.00
2023-03-08T08:50:14.070Z,1.00
2023-03-08T08:52:42.486Z,1.00
2023-03-08T08:55:11.320Z,1.00
2023-03-08T08:57:39.550Z,1.00
2023-03-08T09:00:10.132Z,1.00
2023-03-08T09:02:39.789Z,1.00
2023-03-08T09:05:08.820Z,1.00
2023-03-08T09:07:38.973Z,1.00
2023-03-08T09:10:10.081Z,1.00
2023-03-08T09:12:38.627Z,1.00
2023-03-08T09:15:10.111Z,1.00
2023-03-08T09:17:40.143Z,1.00
2023-03-08T09:20:10.725Z,1.00
2023-03-08T09:22:39.770Z,1.00
2023-03-08T09:25:10.393Z,1.00
2023-03-08T09:27:40.009Z,1.00
2023-03-08T09:30:13.252Z,1.00
2023-03-08T09:32:42.877Z,1.00
2023-03-08T09:35:11.573Z,1.00
2023-03-08T09:37:39.854Z,1.00
2023-03-08T09:40:18.331Z,1.00
2023-03-08T09:42:46.910Z,1.00
2023-03-08T09:45:24.892Z,1.00
2023-03-08T09:48:04.825Z,1.00
2023-03-08T09:50:43.673Z,1.00
2023-03-08T09:53:24.130Z,1.00
2023-03-08T09:55:57.842Z,1.00
2023-03-08T09:58:42.911Z,1.00
2023-03-08T10:01:37.320Z,1.00
2023-03-08T10:04:34.221Z,1.00
2023-03-08T10:07:25.325Z,1.00
2023-03-08T10:10:18.578Z,1.00
2023-03-08T10:13:06.831Z,1.00
2023-03-08T10:15:42.530Z,1.00
2023-03-08T10:18:19.281Z,1.00
2023-03-08T10:20:49.382Z,1.00
2023-03-08T10:23:20.995Z,1.00
2023-03-08T10:25:51.599Z,1.00
2023-03-08T10:28:23.807Z,1.00
2023-03-08T10:30:54.877Z,1.00
2023-03-08T10:33:26.118Z,1.00
2023-03-08T10:36:02.105Z,1.00
2023-03-08T10:38:32.975Z,1.00
2023-03-08T10:41:04.232Z,1.00
2023-03-08T10:43:37.865Z,1.00
2023-03-08T10:46:12.911Z,1.00
2023-03-08T10:48:41.819Z,1.00
2023-03-08T10:51:20.982Z,1.00
2023-03-08T10:53:57.878Z,1.00
2023-03-08T10:56:35.056Z,1.00
2023-03-08T10:59:05.753Z,99.90
2023-03-08T11:01:36.778Z,99.90
2023-03-08T11:04:07.711Z,99.90
2023-03-08T11:06:37.272Z,99.90
2023-03-08T11:09:22.141Z,99.90
2023-03-08T11:11:50.801Z,99.90
2023-03-08T11:14:19.696Z,99.90
2023-03-08T11:17:09.275Z,99.90
2023-03-08T11:19:59.691Z,99.90
2023-03-08T11:22:47.579Z,99.90
2023-03-08T11:25:34.903Z,99.90
2023-03-08T11:28:43.672Z,99.90
2023-03-08T11:31:23.778Z,1.00
2023-03-08T11:34:18.641Z,1.00
2023-03-08T11:36:59.618Z,1.00
2023-03-08T11:39:34.310Z,1.00
2023-03-08T11:42:16.280Z,1.00
2023-03-08T11:45:06.641Z,1.00
2023-03-08T11:48:12.516Z,99.90
2023-03-08T11:50:48.821Z,99.90
2023-03-08T11:53:29.918Z,1.00
2023-03-08T11:56:35.785Z,99.90
2023-03-08T11:59:12.225Z,1.00
2023-03-08T12:01:48.432Z,99.90
2023-03-08T12:04:22.318Z,19.40
2023-03-08T12:06:51.160Z,1.00
2023-03-08T12:09:28.676Z,1.00
2023-03-08T12:12:04.662Z,99.90
2023-03-08T12:14:36.239Z,1.00
2023-03-08T12:17:14.341Z,13.20
2023-03-08T12:19:45.808Z,26.00
2023-03-08T12:22:39.355Z,1.00
2023-03-08T12:25:21.955Z,1.00
2023-03-08T12:28:00.417Z,1.00
2023-03-08T12:30:45.136Z,1.00
2023-03-08T12:33:16.219Z,99.90
2023-03-08T12:35:54.419Z,99.90
2023-03-08T12:38:39.280Z,99.90
2023-03-08T12:41:25.026Z,1.00
2023-03-08T12:44:05.548Z,1.00
2023-03-08T12:47:02.242Z,1.00
2023-03-08T12:49:35.080Z,99.90
2023-03-08T12:52:07.292Z,1.00
2023-03-08T12:54:37.324Z,1.00
2023-03-08T12:57:21.075Z,99.90
2023-03-08T12:59:59.316Z,1.00
2023-03-08T13:02:31.666Z,1.00
2023-03-08T13:05:33.061Z,99.90
2023-03-08T13:08:24.479Z,96.20
2023-03-08T13:11:11.278Z,99.90
2023-03-08T13:13:53.344Z,71.30
2023-03-08T13:16:33.259Z,99.90
2023-03-08T13:19:27.449Z,99.90
2023-03-08T13:22:10.215Z,99.90
2023-03-08T13:24:47.956Z,99.90
2023-03-08T13:27:35.241Z,99.90
2023-03-08T13:30:24.164Z,99.90
2023-03-08T13:32:54.368Z,99.90
2023-03-08T13:35:23.395Z,1.00
2023-03-08T13:37:58.816Z,1.00
2023-03-08T13:40:30.388Z,1.00
2023-03-08T13:43:02.418Z,1.00
2023-03-08T13:45:30.923Z,99.90
2023-03-08T13:48:07.093Z,1.00
2023-03-08T13:50:39.362Z,1.00
2023-03-08T13:53:15.349Z,12.50
2023-03-08T13:55:49.529Z,1.00
2023-03-08T13:58:32.132Z,99.90
2023-03-08T14:01:04.075Z,99.90
2023-03-08T14:03:34.369Z,1.00
2023-03-08T14:06:03.030Z,1.00
2023-03-08T14:08:31.466Z,1.00
2023-03-08T14:11:04.998Z,1.00
2023-03-08T14:13:37.400Z,1.00
2023-03-08T14:16:08.632Z,1.00
2023-03-08T14:18:43.354Z,1.00
2023-03-08T14:21:18.797Z,99.90
2023-03-08T14:23:51.558Z,1.00
2023-03-08T14:26:30.271Z,1.00
2023-03-08T14:29:14.972Z,1.00
2023-03-08T14:31:56.830Z,1.00
2023-03-08T14:34:29.573Z,1.00
2023-03-08T14:37:02.427Z,63.60
2023-03-08T14:39:33.537Z,99.90
2023-03-08T14:42:12.547Z,99.90
2023-03-08T14:44:40.940Z,1.00
2023-03-08T14:47:11.707Z,1.00
2023-03-08T14:49:41.589Z,1.00
2023-03-08T14:52:21.907Z,15.00
2023-03-08T14:54:50.627Z,1.00
2023-03-08T14:57:22.867Z,99.90
2023-03-08T14:59:52.694Z,99.90
2023-03-08T15:02:21.167Z,99.90
2023-03-08T15:04:51.060Z,1.00
2023-03-08T15:07:23.688Z,99.90
2023-03-08T15:09:53.223Z,1.00
2023-03-08T15:12:21.557Z,1.00
2023-03-08T15:14:49.957Z,1.00
2023-03-08T15:17:18.473Z,1.00
2023-03-08T15:19:46.837Z,1.00
2023-03-08T15:22:18.876Z,1.00
2023-03-08T15:24:47.206Z,99.90
2023-03-08T15:27:17.509Z,1.00
2023-03-08T15:29:46.256Z,1.00
2023-03-08T15:32:14.666Z,3.70
2023-03-08T15:34:43.242Z,99.90
2023-03-08T15:37:16.303Z,99.90
2023-03-08T15:39:44.883Z,1.00
2023-03-08T15:42:13.514Z,1.00
2023-03-08T15:44:41.961Z,97.00
2023-03-08T15:47:11.253Z,99.90
2023-03-08T15:49:39.620Z,1.00
2023-03-08T15:52:08.896Z,48.00
2023-03-08T15:54:40.523Z,1.00
2023-03-08T15:57:08.999Z,1.00
2023-03-08T15:59:37.280Z,1.00
2023-03-08T16:02:05.823Z,95.90
2023-03-08T16:04:34.441Z,99.90
2023-03-08T16:07:02.700Z,37.50
2023-03-08T16:09:30.979Z,1.00
2023-03-08T16:12:00.554Z,4.50
2023-03-08T16:14:29.255Z,1.00
2023-03-08T16:16:57.933Z,1.00
2023-03-08T16:19:26.266Z,99.90
2023-03-08T16:21:54.659Z,99.90
2023-03-08T16:24:22.944Z,99.90
2023-03-08T16:26:51.259Z,91.20
2023-03-08T16:29:21.468Z,1.00
2023-03-08T16:31:50.582Z,99.90
2023-03-08T16:34:19.834Z,1.00
2023-03-08T16:36:48.325Z,1.00
2023-03-08T16:39:17.120Z,99.90
2023-03-08T16:41:45.635Z,99.90
2023-03-08T16:44:24.217Z,99.90
2023-03-08T16:46:53.204Z,1.00
2023-03-08T16:49:27.986Z,1.00
2023-03-08T16:51:56.617Z,1.00
2023-03-08T16:54:25.321Z,1.00
2023-03-08T16:56:53.854Z,1.00
2023-03-08T16:59:23.863Z,1.00
2023-03-08T17:01:52.209Z,99.90
2023-03-08T17:04:22.612Z,1.00
2023-03-08T17:06:51.580Z,99.90
2023-03-08T17:09:19.921Z,99.90
2023-03-08T17:11:48.341Z,1.00
2023-03-08T17:14:17.604Z,1.00
2023-03-08T17:16:47.261Z,1.00
2023-03-08T17:19:15.532Z,99.90
2023-03-08T17:21:44.138Z,99.90
2023-03-08T17:24:15.577Z,1.00
2023-03-08T17:26:47.176Z,1.00
2023-03-08T17:29:16.208Z,7.50
2023-03-08T17:31:45.941Z,1.00
2023-03-08T17:34:14.499Z,1.00
2023-03-08T17:36:43.236Z,1.00
2023-03-08T17:39:11.687Z,1.00
2023-03-08T17:41:40.079Z,95.50
2023-03-08T17:44:08.554Z,99.90
2023-03-08T17:46:37.038Z,99.90
2023-03-08T17:49:06.766Z,99.90
2023-03-08T17:51:35.574Z,99.90
2023-03-08T17:54:04.897Z,1.00
2023-03-08T17:56:35.544Z,1.00
2023-03-08T17:59:04.194Z,1.00
2023-03-08T18:01:33.457Z,1.00
2023-03-08T18:04:02.621Z,1.00
2023-03-08T18:06:38.532Z,99.90
2023-03-08T18:09:09.808Z,99.90
2023-03-08T18:11:38.363Z,99.90
2023-03-08T18:14:07.838Z,1.00
2023-03-08T18:16:36.715Z,99.90
2023-03-08T18:19:07.255Z,99.90
2023-03-08T18:21:40.851Z,99.90
2023-03-08T18:24:12.832Z,99.90
2023-03-08T18:26:41.239Z,99.90
2023-03-08T18:29:09.773Z,1.00
2023-03-08T18:31:38.461Z,99.90
2023-03-08T18:34:08.008Z,1.00
2023-03-08T18:36:38.603Z,1.00
2023-03-08T18:39:13.091Z,1.00
2023-03-08T18:41:41.575Z,57.70
2023-03-08T18:44:12.999Z,3.60
2023-03-08T18:46:41.326Z,1.00
2023-03-08T18:49:13.372Z,14.60
2023-03-08T18:51:44.486Z,1.00
2023-03-08T18:54:17.130Z,1.00
2023-03-08T18:56:45.582Z,1.00
2023-03-08T18:59:15.117Z,1.00
2023-03-08T19:01:45.176Z,99.90
2023-03-08T19:04:14.359Z,1.00
2023-03-08T19:06:46.468Z,1.00
2023-03-08T19:09:17.332Z,1.00
2023-03-08T19:11:47.898Z,1.00
2023-03-08T19:14:18.351Z,1.00
2023-03-08T19:16:46.897Z,1.00
2023-03-08T19:19:17.925Z,99.90
2023-03-08T19:21:49.857Z,94.70
2023-03-08T19:24:21.226Z,99.90
2023-03-08T19:26:53.140Z,99.90
2023-03-08T19:29:24.613Z,99.90
2023-03-08T19:31:55.557Z,99.90
2023-03-08T19:34:27.002Z,99.90
2023-03-08T19:36:58.267Z,99.90
2023-03-08T19:39:31.379Z,99.90
2023-03-08T19:42:02.590Z,1.00
2023-03-08T19:44:31.726Z,1.00
2023-03-08T19:47:01.215Z,1.00
2023-03-08T19:49:32.578Z,1.00
2023-03-08T19:52:06.449Z,1.00
2023-03-08T19:54:35.303Z,1.00
2023-03-08T19:57:04.006Z,13.80
2023-03-08T19:59:32.608Z,63.40
2023-03-08T20:02:00.949Z,84.70
2023-03-08T20:04:29.921Z,99.90
2023-03-08T20:07:02.599Z,84.60
2023-03-08T20:09:30.832Z,56.90
2023-03-08T20:11:59.324Z,99.90
2023-03-08T20:14:28.403Z,99.90
2023-03-08T20:16:58.944Z,99.90
2023-03-08T20:19:27.238Z,99.90
2023-03-08T20:21:55.444Z,68.80
2023-03-08T20:24:25.312Z,99.90
2023-03-08T20:26:53.551Z,99.90
2023-03-08T20:29:21.829Z,99.90
2023-03-08T20:31:50.212Z,99.90
2023-03-08T20:34:19.825Z,99.90
2023-03-08T20:36:48.339Z,99.90
2023-03-08T20:39:18.165Z,99.90
2023-03-08T20:41:47.722Z,56.80
2023-03-08T20:44:15.955Z,99.90
2023-03-08T20:46:44.213Z,99.90
2023-03-08T20:49:12.580Z,99.90
2023-03-08T20:51:41.052Z,99.90
2023-03-08T20:54:10.880Z,99.90
2023-03-08T20:56:39.352Z,99.90
2023-03-08T20:59:08.986Z,99.90
2023-03-08T21:01:37.801Z,99.90
2023-03-08T21:04:06.886Z,99.90
2023-03-08T21:06:35.137Z,99.90
2023-03-08T21:09:04.292Z,99.90
2023-03-08T21:11:32.700Z,99.90
2023-03-08T21:14:01.117Z,99.90
2023-03-08T21:16:31.625Z,99.90
2023-03-08T21:19:02.449Z,99.90
2023-03-08T21:21:35.322Z,99.90
2023-03-08T21:24:07.530Z,99.90
2023-03-08T21:26:36.458Z,99.90
2023-03-08T21:29:08.191Z,99.90
2023-03-08T21:31:42.444Z,99.90
2023-03-08T21:34:13.325Z,99.90
2023-03-08T21:36:42.076Z,99.90
2023-03-08T21:39:11.781Z,99.90
2023-03-08T21:41:44.633Z,99.90
2023-03-08T21:44:16.748Z,99.90
2023-03-08T21:46:47.470Z,99.90
2023-03-08T21:49:19.537Z,99.90
2023-03-08T21:51:47.829Z,99.90
2023-03-08T21:54:16.397Z,99.90
2023-03-08T21:56:44.715Z,99.90
2023-03-08T21:59:13.517Z,99.90
2023-03-08T22:01:44.131Z,99.90
2023-03-08T22:04:14.226Z,99.90
2023-03-08T22:06:42.855Z,1.00
2023-03-08T22:09:11.611Z,1.00
2023-03-08T22:11:40.311Z,99.90
2023-03-08T22:14:08.692Z,99.90
2023-03-08T22:16:37.770Z,99.90
2023-03-08T22:19:06.917Z,99.90
2023-03-08T22:21:36.497Z,99.90
2023-03-08T22:24:05.969Z,1.00
2023-03-08T22:26:34.299Z,99.90
2023-03-08T22:29:02.590Z,99.90
2023-03-08T22:31:31.889Z,99.90
2023-03-08T22:34:01.291Z,99.90
2023-03-08T22:36:29.829Z,99.90
2023-03-08T22:38:59.463Z,99.90
2023-03-08T22:41:29.077Z,99.90
2023-03-08T22:43:57.344Z,99.90
2023-03-08T22:46:28.409Z,99.90
2023-03-08T22:48:58.777Z,99.90
2023-03-08T22:51:28.618Z,99.90
2023-03-08T22:53:58.990Z,99.90
2023-03-08T22:56:30.613Z,99.90
2023-03-08T22:58:59.201Z,99.90
2023-03-08T23:01:29.996Z,99.90
2023-03-08T23:04:00.298Z,99.90
2023-03-08T23:06:31.682Z,99.90
2023-03-08T23:09:02.215Z,99.90
2023-03-08T23:11:32.039Z,1.00
2023-03-08T23:14:00.624Z,1.00
2023-03-08T23:16:28.996Z,1.00
2023-03-08T23:18:57.783Z,1.00
2023-03-08T23:21:30.241Z,1.00
2023-03-08T23:23:58.779Z,1.00
2023-03-08T23:26:28.672Z,1.00
2023-03-08T23:29:03.113Z,1.00
2023-03-08T23:31:35.122Z,1.00
2023-03-08T23:34:06.558Z,1.00
2023-03-08T23:36:35.703Z,1.00
2023-03-08T23:39:04.480Z,1.00
2023-03-08T23:41:33.893Z,1.00
2023-03-08T23:44:04.388Z,1.00
2023-03-08T23:46:33.284Z,1.00
2023-03-08T23:49:02.627Z,1.00
2023-03-08T23:51:34.180Z,1.00
2023-03-08T23:54:04.116Z,1.00
2023-03-08T23:56:38.659Z,1.00
2023-03-08T23:59:12.594Z,1.00
